Terminal Aerodrome Forecast
Issued by NWS

Home | Current Version | Previous Version | Text Only | Print | Product List | Glossary On
Versions: 1 2 3 4 5 6 7 8 9 10 11 12 13 14 15 16 17 18 19 20 21 22 23 24 25
000
FTUS41 KBUF 260500
TAFJHW
TAF
KJHW 260520Z 2606/2706 30005KT P6SM OVC020
     FM261200 04004KT P6SM OVC025
     FM261800 04006KT 6SM -SHSN OVC015
     FM262300 03005KT P6SM BKN025
      AMD LTD TO CLD VIS AND WIND=

USA.gov is the U.S. government's official web portal to all federal, state and local government web resources and services.